Wednesday, November 22, 2017, 8:01 AM EST
Back to Local

KMIV, Millville Municipal Airport

Location: Millville, NJ, United States Lat: 39.367
Local Time: 8:01 AM EST (13:01 GMT) Lon: -75.083
Time Zone: US/Eastern Elev: 85 ft

Show me the last for .
Show Decoded

2017-11-22 07:40 METAR KMIV 221240Z AUTO 00000KT 5SM -RA BR BKN007 BKN020 OVC075 12/12 A2992 RMK
                 AO2 T01170117 PNO $ =
2017-11-22 07:23 METAR KMIV 221223Z AUTO 00000KT 5SM -RA BR SCT006 SCT049 OVC080 12/12 A2991 RMK
                 AO2 T01170117 PNO $ =
2017-11-22 07:10 METAR KMIV 221210Z AUTO 28004KT 2SM +RA BR SCT006 BKN046 OVC070 12/12 A2992 RMK
                 AO2 T01170117 PNO $ =
2017-11-22 07:02 METAR KMIV 221202Z AUTO 26005KT 2 1/2SM +RA BR SCT004 BKN010 OVC035 12/12 A2992
                 RMK AO2 T01170117 PNO $ =
2017-11-22 06:54 METAR KMIV 221154Z AUTO 24004KT 3SM RA BR BKN006 BKN011 OVC075 12/12 A2992 RMK
                 AO2 RAB12E24B30 SLP132 6//// 7//// T01170117 10122 20094 55004 PNO $ =
2017-11-22 06:52 METAR KMIV 221152Z AUTO 26005KT 3SM RA BR BKN006 BKN038 OVC075 12/12 A2992 RMK
                 AO2 RAB12E24B30 PNO $ =
2017-11-22 06:35 METAR KMIV 221135Z AUTO 24003KT 1 3/4SM +RA BR BKN006 BKN036 OVC047 12/12 A2992
                 RMK AO2 RAB12E24B30 T01220122 PNO $ =
2017-11-22 06:28 METAR KMIV 221128Z AUTO 25003KT 10SM BKN006 BKN035 OVC070 12/12 A2992 RMK AO2
                 RAB12E24 CIG 005V011 T01220122 PNO $ =
2017-11-22 05:54 METAR KMIV 221054Z AUTO 00000KT 10SM FEW050 OVC100 12/12 A2990 RMK AO2 RAB27E38
                 SLP124 T01220122 PNO $ =
2017-11-22 04:54 METAR KMIV 220954Z AUTO 00000KT 10SM OVC110 12/12 A2990 RMK AO2 RAE37 SLP125
                 T01220122 PNO $ =
2017-11-22 03:54 METAR KMIV 220854Z AUTO VRB03KT 9SM -RA OVC080 12/12 A2994 RMK AO2 SLP136 6////
                 T01220122 58021 PNO $ =
2017-11-22 02:54 METAR KMIV 220754Z AUTO VRB04KT 5SM RA BR OVC070 12/12 A2997 RMK AO2 SLP147
                 T01170117 PNO $ =
2017-11-22 02:21 METAR KMIV 220721Z AUTO 00000KT 3SM -RA BR SCT041 BKN055 OVC070 11/11 A2998 RMK
                 AO2 T01110111 PNO $ =
2017-11-22 02:11 METAR KMIV 220711Z AUTO VRB04KT 1SM +RA BR SCT032 BKN050 OVC090 11/11 A2999 RMK
                 AO2 T01060106 PNO $ =
2017-11-22 02:04 METAR KMIV 220704Z AUTO VRB03KT 2SM -RA BR FEW025 BKN050 OVC090 10/10 A2998 RMK
                 AO2 VIS 1/2V5 P0000 T01000100 =
2017-11-22 01:54 METAR KMIV 220654Z AUTO 00000KT 10SM -RA SCT050 BKN075 OVC095 10/09 A2998 RMK
                 AO2 RAB54 SLP150 P0000 T01000094 =
2017-11-22 00:54 METAR KMIV 220554Z AUTO 00000KT 10SM SCT070 BKN110 12/09 A3000 RMK AO2 SLP157
                 T01170094 10128 20111 58020 =
2017-11-21 23:54 METAR KMIV 220454Z AUTO 00000KT 10SM SCT075 OVC090 12/09 A3003 RMK AO2 SLP169
                 T01220089 401560061 =
2017-11-21 22:54 METAR KMIV 220354Z AUTO VRB04KT 10SM BKN055 OVC085 13/09 A3005 RMK AO2 SLP173
                 T01280089 =
2017-11-21 21:54 METAR KMIV 220254Z AUTO VRB04KT 10SM BKN080 12/08 A3006 RMK AO2 SLP177 T01220078
                 58007 =
2017-11-21 20:54 METAR KMIV 220154Z AUTO 21004KT 10SM BKN055 12/07 A3007 RMK AO2 SLP182 T01170067
                 =
2017-11-21 19:54 METAR KMIV 220054Z AUTO 00000KT 10SM CLR 12/06 A3007 RMK AO2 SLP182 T01170061 =
2017-11-21 18:54 METAR KMIV 212354Z AUTO VRB05KT 10SM CLR 12/07 A3008 RMK AO2 SLP184 T01170067
                 10156 20117 53005 =
2017-11-21 17:54 METAR KMIV 212254Z AUTO VRB05KT 10SM CLR 13/07 A3007 RMK AO2 SLP182 T01280067 =
2017-11-21 16:54 METAR KMIV 212154Z AUTO VRB04KT 10SM CLR 13/06 A3005 RMK AO2 SLP176 T01280061 =
2017-11-21 15:54 METAR KMIV 212054Z AUTO 22008KT 10SM CLR 13/04 A3006 RMK AO2 SLP178 T01330044
                 55015 =
2017-11-21 14:54 METAR KMIV 211954Z AUTO 22007G15KT 10SM CLR 14/03 A3006 RMK AO2 SLP178 T01440033
                 $ =
2017-11-21 13:54 METAR KMIV 211854Z AUTO 20007KT 160V240 10SM CLR 16/01 A3006 RMK AO2 SLP178
                 T01560011 $ =
2017-11-21 12:54 METAR KMIV 211754Z AUTO 22009G18KT 170V270 10SM CLR 14/01 A3011 RMK AO2 SLP193
                 T01390011 10144 20072 58023 $ =
2017-11-21 11:54 METAR KMIV 211654Z AUTO 23007G16KT 190V260 10SM CLR 13/02 A3014 RMK AO2 SLP204
                 T01330017 $ =
2017-11-21 10:54 METAR KMIV 211554Z AUTO 21006KT 10SM CLR 13/02 A3017 RMK AO2 SLP213 T01330022 =
2017-11-21 09:54 METAR KMIV 211454Z AUTO 21007KT 10SM CLR 12/02 A3018 RMK AO2 SLP217 T01170022
                 50002 =
2017-11-21 08:54 METAR KMIV 211354Z AUTO 23012G17KT 160V260 10SM CLR 10/03 A3018 RMK AO2 SLP218
                 T01000033 =

Support USWX by starting your Amazon purchase here.